CYEV

Inuvik (Mike Zubko) Airport

Airport
ICAO code
CYEV
Summary
ICAO Region
NAM
ICAO Territory
Location

Inuvik, Northwest Territories,

Coordinates
68° 18' 15" N , 133° 28' 58" W
KCC
Airport BS
Bird Strike
Non Avian Wildlife Hazards to Aircraft
Airport CFIT
Altimeter Temperature Error Correction
Airport GND
Aircraft Ground De/Anti Icing
Airport RE
Landing on Contaminated Runways
Metar
Observation
CYEV 280500Z 00000KT 15SM IC SCT190 M32/M35 A3081 RMK AC3 SLP450
Station
Inuvik, N. W. T.
Date/Time
2022-11-28 05:00:00
Wind direction
Wind speed
00 kts
Lowest cloud amount
scattered clouds
Temperature
-32°C
Dew point
-35°C
Humidity
74%
Weather condition
ice crystals

Description

Inuvik Mike Zubko Airport is a regional airport serving Inuvik, Northwest Territories.

Climatology

Tundra climate (Köppen climate classification ET) - warmest month has an average temperature of 0 - 10 degrees C.

Runways

Designator Length Width Surface Rops
6/24 1829 46 ASP Yes/Yes

Airport map

Aerial View

SKYbrary Partners:

Safety knowledge contributed by: